createdAt,value
2018-01-22T05:41:35.223Z,4.95
2018-01-22T05:44:01.752Z,5.55
2018-01-22T05:46:28.349Z,4.50
2018-01-22T05:48:55.388Z,5.10
2018-01-22T05:51:21.896Z,3.62
2018-01-22T05:53:49.687Z,4.68
2018-01-22T05:56:16.546Z,4.65
2018-01-22T05:58:43.151Z,4.68
2018-01-22T06:01:10.272Z,5.12
2018-01-22T06:03:36.717Z,4.30
2018-01-22T06:06:03.295Z,5.50
2018-01-22T06:08:30.776Z,7.07
2018-01-22T06:10:58.646Z,6.87
2018-01-22T06:13:25.324Z,6.20
2018-01-22T06:15:51.887Z,5.28
2018-01-22T06:18:18.408Z,5.37
2018-01-22T06:20:44.947Z,4.90
2018-01-22T06:23:11.555Z,5.35
2018-01-22T06:25:38.047Z,4.90
2018-01-22T06:28:04.660Z,5.32
2018-01-22T06:30:31.142Z,4.85
2018-01-22T06:32:57.556Z,6.22
2018-01-22T06:35:24.183Z,6.80
2018-01-22T06:37:50.732Z,7.45
2018-01-22T06:40:17.264Z,5.75
2018-01-22T06:42:43.812Z,6.90
2018-01-22T06:45:10.303Z,7.05
2018-01-22T06:47:36.839Z,7.75
2018-01-22T06:50:04.231Z,6.68
2018-01-22T06:52:30.804Z,9.05
2018-01-22T06:54:57.412Z,8.52
2018-01-22T06:57:24.286Z,9.02
2018-01-22T06:59:50.756Z,9.25
2018-01-22T07:02:17.565Z,8.25
2018-01-22T07:04:45.203Z,8.88
2018-01-22T07:07:12.180Z,10.10
2018-01-22T07:09:38.771Z,9.73
2018-01-22T07:12:05.313Z,9.70
2018-01-22T07:14:31.764Z,9.98
2018-01-22T07:16:58.337Z,9.07
2018-01-22T07:19:24.727Z,10.63
2018-01-22T07:21:52.017Z,11.20
2018-01-22T07:24:18.587Z,10.27
2018-01-22T07:26:45.139Z,11.00
2018-01-22T07:29:11.599Z,10.25
2018-01-22T07:31:38.135Z,11.23
2018-01-22T07:34:04.979Z,13.55
2018-01-22T07:36:31.582Z,12.13
2018-01-22T07:38:58.068Z,11.02
2018-01-22T07:41:24.672Z,11.70
2018-01-22T07:43:51.115Z,13.43
2018-01-22T07:46:17.967Z,14.80
2018-01-22T07:48:44.544Z,13.75
2018-01-22T07:51:11.101Z,12.00
2018-01-22T07:53:37.600Z,11.07
2018-01-22T07:56:04.189Z,11.93
2018-01-22T07:58:30.642Z,11.75
2018-01-22T08:00:57.547Z,11.45
2018-01-22T08:03:24.028Z,11.12
2018-01-22T08:05:50.410Z,14.55
2018-01-22T08:08:17.165Z,13.55
2018-01-22T08:10:44.295Z,12.02
2018-01-22T08:13:10.824Z,12.05
2018-01-22T08:15:37.684Z,11.43
2018-01-22T08:18:04.168Z,14.45
2018-01-22T08:20:30.772Z,11.38
2018-01-22T08:22:57.580Z,12.48
2018-01-22T08:25:24.431Z,12.18
2018-01-22T08:27:50.924Z,11.32
2018-01-22T08:30:17.457Z,13.00
2018-01-22T08:32:44.006Z,11.48
2018-01-22T08:35:10.543Z,12.68
2018-01-22T08:37:37.117Z,13.65
2018-01-22T08:40:03.580Z,12.40
2018-01-22T08:42:30.160Z,12.57
2018-01-22T08:44:58.216Z,12.63
2018-01-22T08:47:24.727Z,16.48
2018-01-22T08:49:51.360Z,12.50
2018-01-22T08:52:17.792Z,13.20
2018-01-22T08:54:44.331Z,12.90
2018-01-22T08:57:10.960Z,13.88
2018-01-22T08:59:37.547Z,12.90
2018-01-22T09:02:04.320Z,12.07
2018-01-22T09:04:31.071Z,14.38
2018-01-22T09:06:57.655Z,14.85
2018-01-22T09:09:24.166Z,12.75
2018-01-22T09:11:51.041Z,12.75
2018-01-22T09:14:17.568Z,12.90
2018-01-22T09:16:44.044Z,12.25
2018-01-22T09:19:10.424Z,13.30
2018-01-22T09:21:36.852Z,11.07
2018-01-22T09:24:03.451Z,12.63
2018-01-22T09:26:29.980Z,14.23
2018-01-22T09:28:56.412Z,12.45
2018-01-22T09:31:22.967Z,13.18
2018-01-22T09:33:49.568Z,12.07
2018-01-22T09:36:16.296Z,16.10
2018-01-22T09:38:42.928Z,15.30
2018-01-22T09:41:09.395Z,13.40
2018-01-22T09:43:35.931Z,14.50
2018-01-22T09:46:02.468Z,13.18
2018-01-22T09:48:29.090Z,13.23
2018-01-22T09:50:55.644Z,14.18
2018-01-22T09:53:22.796Z,12.13
2018-01-22T09:55:49.837Z,12.55
2018-01-22T09:58:16.436Z,14.27
2018-01-22T10:00:42.924Z,12.37
2018-01-22T10:03:09.488Z,13.75
2018-01-22T10:05:35.937Z,12.80
2018-01-22T10:08:02.837Z,11.75
2018-01-22T10:10:29.359Z,14.38
2018-01-22T10:12:55.948Z,13.43
2018-01-22T10:15:22.500Z,12.48
2018-01-22T10:17:48.964Z,13.80
2018-01-22T10:20:15.545Z,13.55
2018-01-22T10:22:42.068Z,13.68
2018-01-22T10:25:08.600Z,14.93
2018-01-22T10:27:35.264Z,14.90
2018-01-22T10:30:01.950Z,13.30
2018-01-22T10:32:28.581Z,13.20
2018-01-22T10:34:55.044Z,12.70
2018-01-22T10:37:21.570Z,15.02
2018-01-22T10:39:48.319Z,13.50
2018-01-22T10:42:14.679Z,15.48
2018-01-22T10:44:41.249Z,13.82
2018-01-22T10:47:07.780Z,14.18
2018-01-22T10:49:34.219Z,12.98
2018-01-22T10:52:00.678Z,13.15
2018-01-22T10:54:27.643Z,14.30
2018-01-22T10:56:54.146Z,13.30
2018-01-22T10:59:20.708Z,13.82
2018-01-22T11:01:47.267Z,14.73
2018-01-22T11:04:13.780Z,12.75
2018-01-22T11:06:41.207Z,13.75
2018-01-22T11:09:07.800Z,15.63
2018-01-22T11:11:34.293Z,15.25
2018-01-22T11:14:00.829Z,16.12
2018-01-22T11:16:27.412Z,15.00
2018-01-22T11:18:54.676Z,16.23
2018-01-22T11:21:21.697Z,13.00
2018-01-22T11:23:48.183Z,14.32
2018-01-22T11:26:14.780Z,13.73
2018-01-22T11:28:41.163Z,12.45
2018-01-22T11:31:07.787Z,11.07
2018-01-22T11:33:34.416Z,13.95
2018-01-22T11:36:01.485Z,12.90
2018-01-22T11:38:28.243Z,13.90
2018-01-22T11:40:54.851Z,14.13
2018-01-22T11:43:21.379Z,15.43
2018-01-22T11:45:47.960Z,13.88
2018-01-22T11:48:14.455Z,13.20
2018-01-22T11:50:41.037Z,15.25
2018-01-22T11:53:07.584Z,14.02
2018-01-22T11:55:34.366Z,13.68
2018-01-22T11:58:02.180Z,15.90
2018-01-22T12:00:28.673Z,18.37
2018-01-22T12:02:55.520Z,15.75
2018-01-22T12:05:22.116Z,15.68
2018-01-22T12:07:48.789Z,17.15
2018-01-22T12:10:15.508Z,16.48
2018-01-22T12:12:42.004Z,16.08
2018-01-22T12:15:08.373Z,16.05
2018-01-22T12:17:35.331Z,15.95
2018-01-22T12:20:01.937Z,13.90
2018-01-22T12:22:28.409Z,12.15
2018-01-22T12:24:54.839Z,15.40
2018-01-22T12:27:21.459Z,15.10
2018-01-22T12:29:48.007Z,15.10
2018-01-22T12:32:14.579Z,14.95
2018-01-22T12:34:40.940Z,13.40
2018-01-22T12:37:07.919Z,15.15
2018-01-22T12:39:34.497Z,14.77
2018-01-22T12:42:01.004Z,17.17
2018-01-22T12:44:28.471Z,17.90
2018-01-22T12:46:55.032Z,19.42
2018-01-22T12:49:21.512Z,14.93
2018-01-22T12:51:48.045Z,20.98
2018-01-22T12:54:14.737Z,22.05
2018-01-22T12:56:41.745Z,19.67
2018-01-22T12:59:08.259Z,24.05
2018-01-22T13:01:34.627Z,21.10
2018-01-22T13:04:01.047Z,16.65
2018-01-22T13:06:27.601Z,21.23
2018-01-22T13:08:54.452Z,19.83
2018-01-22T13:11:20.888Z,16.17
2018-01-22T13:13:47.544Z,17.27
2018-01-22T13:16:14.089Z,17.08
2018-01-22T13:18:40.977Z,16.75
2018-01-22T13:21:07.384Z,17.55
2018-01-22T13:23:34.223Z,18.27
2018-01-22T13:26:00.773Z,18.60
2018-01-22T13:28:27.335Z,17.95
2018-01-22T13:30:53.951Z,20.08
2018-01-22T13:33:20.371Z,18.17
2018-01-22T13:35:46.912Z,16.85
2018-01-22T13:38:13.535Z,17.65
2018-01-22T13:40:46.152Z,15.75
2018-01-22T13:43:12.680Z,20.12
2018-01-22T13:45:39.192Z,18.27
2018-01-22T13:48:05.793Z,18.08
2018-01-22T13:50:32.324Z,17.35
2018-01-22T13:53:00.079Z,20.58
2018-01-22T13:55:26.578Z,18.33
2018-01-22T13:57:53.374Z,18.12
2018-01-22T14:00:19.983Z,20.50
2018-01-22T14:02:46.484Z,17.50
2018-01-22T14:05:13.070Z,17.30
2018-01-22T14:07:39.544Z,18.55
2018-01-22T14:10:06.077Z,16.83
2018-01-22T14:12:32.734Z,19.42
2018-01-22T14:14:59.212Z,18.67
2018-01-22T14:17:25.686Z,20.08
2018-01-22T14:19:52.235Z,17.40
2018-01-22T14:22:18.828Z,17.10
2018-01-22T14:24:45.355Z,18.23
2018-01-22T14:27:11.896Z,19.33
2018-01-22T14:29:38.363Z,17.48
2018-01-22T14:32:04.904Z,18.10
2018-01-22T14:34:31.500Z,19.02
2018-01-22T14:36:58.072Z,20.80
2018-01-22T14:39:24.553Z,18.30
2018-01-22T14:41:51.032Z,20.50
2018-01-22T14:44:17.628Z,18.85
2018-01-22T14:46:44.060Z,17.95
2018-01-22T14:49:10.682Z,19.30
2018-01-22T14:51:38.436Z,20.75
2018-01-22T14:54:05.028Z,17.67
2018-01-22T14:56:31.491Z,20.73
2018-01-22T14:58:58.032Z,22.95
2018-01-22T15:01:24.583Z,21.40
2018-01-22T15:03:51.208Z,21.85
2018-01-22T15:06:18.528Z,24.98
2018-01-22T15:08:45.148Z,22.20
2018-01-22T15:11:11.972Z,22.48
2018-01-22T15:13:39.420Z,24.85
2018-01-22T15:16:05.964Z,23.08
2018-01-22T15:18:32.811Z,24.83
2018-01-22T15:34:16.832Z,21.95
2018-01-22T15:36:43.627Z,23.23
2018-01-22T15:39:10.149Z,21.27
2018-01-22T15:41:36.781Z,20.92
2018-01-22T15:44:03.236Z,20.37
2018-01-22T15:46:29.815Z,20.95
2018-01-22T15:48:56.380Z,22.20
2018-01-22T15:51:22.751Z,22.48
2018-01-22T15:53:49.443Z,24.33
2018-01-22T15:56:16.250Z,24.67
2018-01-22T15:58:42.795Z,21.65
2018-01-22T16:01:09.240Z,23.83
2018-01-22T16:03:35.821Z,21.75
2018-01-22T16:06:02.379Z,23.27
2018-01-22T16:08:28.948Z,23.62
2018-01-22T16:10:55.492Z,23.58
2018-01-22T16:13:22.020Z,20.98
2018-01-22T16:15:48.872Z,23.40
2018-01-22T16:18:15.420Z,23.30
2018-01-22T16:20:41.968Z,22.62
2018-01-22T16:23:08.535Z,22.40
2018-01-22T16:25:34.972Z,21.48
2018-01-22T16:28:01.480Z,25.50
2018-01-22T16:30:28.024Z,22.00
2018-01-22T16:32:54.545Z,24.02
2018-01-22T16:35:21.151Z,20.45
2018-01-22T16:37:47.552Z,24.42
2018-01-22T16:40:14.451Z,24.65
2018-01-22T16:42:41.053Z,24.48
2018-01-22T16:45:08.528Z,24.50
2018-01-22T17:27:34.264Z,26.85
2018-01-22T17:30:00.801Z,26.50
2018-01-22T17:32:27.418Z,25.45
2018-01-22T17:34:55.104Z,24.20
2018-01-22T17:37:21.611Z,25.88
2018-01-22T17:39:48.209Z,22.75
2018-01-22T17:42:14.664Z,23.10
2018-01-22T17:44:41.219Z,24.10
2018-01-22T17:47:07.680Z,23.38
2018-01-22T17:49:34.452Z,29.55
2018-01-22T17:52:01.440Z,25.17
2018-01-22T17:54:28.286Z,27.58
2018-01-22T17:56:54.692Z,29.45
2018-01-22T17:59:22.220Z,26.30
2018-01-22T18:01:48.897Z,25.45
2018-01-22T18:04:15.454Z,25.27
2018-01-22T18:06:41.875Z,25.60
2018-01-22T18:09:08.448Z,21.30
2018-01-22T18:11:34.993Z,23.42
2018-01-22T18:14:01.511Z,24.55
2018-01-22T18:16:28.068Z,22.42
2018-01-22T18:18:54.927Z,20.98
2018-01-22T18:21:21.382Z,22.60
2018-01-22T18:23:47.975Z,24.00
2018-01-22T18:26:14.466Z,23.67
2018-01-22T18:28:41.001Z,21.42
2018-01-22T18:31:07.540Z,20.77
2018-01-22T18:33:34.296Z,24.67
2018-01-22T18:36:01.276Z,23.30
2018-01-22T18:38:27.751Z,24.25
2018-01-22T18:40:54.332Z,22.10
2018-01-22T18:43:21.108Z,22.13
2018-01-22T18:45:48.046Z,23.50
2018-01-22T18:48:14.617Z,22.15
2018-01-22T18:50:41.037Z,24.60
2018-01-22T18:53:07.883Z,23.15
2018-01-22T18:55:34.491Z,24.02
2018-01-22T18:58:01.316Z,24.05
2018-01-22T19:00:27.771Z,24.25
2018-01-22T19:02:54.370Z,24.58
2018-01-22T19:05:20.917Z,27.55
2018-01-22T19:07:47.417Z,29.58
2018-01-22T19:10:13.972Z,24.08
2018-01-22T19:12:40.590Z,26.67
2018-01-22T19:15:07.077Z,25.70
2018-01-22T19:17:36.072Z,24.20
2018-01-22T19:20:02.611Z,25.62
2018-01-22T19:22:29.125Z,24.23
2018-01-22T19:24:55.679Z,23.90
2018-01-22T19:27:23.852Z,24.87
2018-01-22T19:29:50.860Z,27.00
2018-01-22T19:32:17.462Z,24.05
2018-01-22T19:34:45.165Z,24.25
2018-01-22T19:37:11.781Z,27.10
2018-01-22T19:39:38.624Z,26.30
2018-01-22T19:42:06.663Z,26.65
2018-01-22T19:44:33.177Z,25.10
2018-01-22T19:47:00.629Z,28.12
2018-01-22T19:49:27.128Z,25.60
2018-01-22T19:51:53.696Z,25.12
2018-01-22T19:54:20.151Z,28.15
2018-01-22T19:56:46.769Z,27.73
2018-01-22T19:59:13.200Z,29.25
2018-01-22T20:01:40.100Z,24.98
2018-01-22T20:04:06.924Z,24.87
2018-01-22T20:06:33.459Z,26.25
2018-01-22T20:09:00.076Z,24.00
2018-01-22T20:11:26.512Z,25.80
2018-01-22T20:13:53.116Z,24.37
2018-01-22T20:16:19.604Z,24.42
2018-01-22T20:18:46.136Z,23.02
2018-01-22T20:21:12.740Z,21.15
2018-01-22T20:23:39.868Z,24.77
2018-01-22T20:26:06.312Z,24.45
2018-01-22T20:28:32.935Z,24.60
2018-01-22T20:30:59.432Z,23.05
2018-01-22T20:33:26.036Z,25.52
2018-01-22T20:35:52.504Z,26.60
2018-01-22T20:38:19.073Z,22.90
2018-01-22T20:40:45.628Z,27.65
2018-01-22T20:43:12.111Z,31.80
2018-01-22T20:45:38.629Z,32.40
2018-01-22T20:48:05.187Z,25.92
2018-01-22T20:50:31.740Z,25.37
2018-01-22T20:52:58.304Z,28.35
2018-01-22T20:55:25.076Z,28.92
2018-01-22T20:57:51.639Z,34.42
2018-01-22T21:00:19.552Z,27.50
2018-01-22T21:02:47.197Z,27.58
2018-01-22T21:05:14.047Z,27.10
2018-01-22T21:07:40.867Z,25.48
2018-01-22T21:10:07.377Z,26.98
2018-01-22T21:12:34.211Z,24.05
2018-01-22T21:15:00.852Z,25.55
2018-01-22T21:17:27.295Z,27.85
2018-01-22T21:19:53.872Z,27.87
2018-01-22T21:22:20.276Z,26.67
2018-01-22T21:24:47.172Z,26.40
2018-01-22T21:27:14.132Z,27.25
2018-01-22T21:29:40.499Z,28.33
2018-01-22T21:32:06.932Z,26.17
2018-01-22T21:34:33.348Z,24.65
2018-01-22T21:37:01.464Z,24.85
2018-01-22T21:39:29.738Z,25.73
2018-01-22T21:41:56.164Z,24.40
2018-01-22T21:44:24.051Z,26.23
2018-01-22T21:46:50.704Z,25.23
2018-01-22T21:49:17.149Z,24.67
2018-01-22T21:51:44.684Z,23.17
2018-01-22T21:54:11.210Z,24.60
2018-01-22T21:56:37.768Z,25.30
2018-01-22T21:59:04.240Z,25.10
2018-01-22T22:01:30.996Z,21.52
2018-01-22T22:03:57.956Z,24.27
2018-01-22T22:06:24.488Z,20.42
2018-01-22T22:08:51.029Z,24.58
2018-01-22T22:11:17.870Z,25.08
2018-01-22T22:13:44.363Z,21.92
2018-01-22T22:16:10.920Z,20.77
2018-01-22T22:18:37.410Z,21.25
2018-01-22T22:21:03.948Z,21.40
2018-01-22T22:23:30.576Z,20.95
2018-01-22T22:25:57.953Z,22.00
2018-01-22T22:28:24.825Z,20.37
2018-01-22T22:30:51.369Z,21.55
2018-01-22T22:33:18.005Z,20.10
2018-01-22T22:35:44.753Z,20.30
2018-01-22T22:38:11.139Z,20.95
2018-01-22T22:40:37.811Z,23.80
2018-01-22T22:43:04.303Z,23.40
2018-01-22T22:45:30.871Z,20.92
2018-01-22T22:47:57.458Z,21.65
2018-01-22T22:50:24.523Z,19.90
2018-01-22T22:52:51.091Z,18.75
2018-01-22T22:55:17.672Z,21.90
2018-01-22T22:57:44.125Z,22.62
2018-01-22T23:00:10.743Z,20.73
2018-01-22T23:02:38.064Z,20.60
2018-01-22T23:05:04.768Z,20.05
2018-01-22T23:07:31.171Z,22.87
2018-01-22T23:09:58.106Z,21.40
2018-01-22T23:12:25.196Z,23.35
2018-01-22T23:14:51.723Z,20.62
2018-01-22T23:17:18.297Z,21.83
2018-01-22T23:19:45.084Z,21.77
